LWH weather

Lawn Hill Airport
Queensland, Australia

Public forecast

Using degrees Celsius for public forecast. Weather courtesy of forecast.io.

METAR (pilot weather report)

Closest report is Normanton Airport, 148.7 nm (275.4 km) ENE. Retrieved 2019/04/23 17:00 UTC (52 minutes ago):

YNTN 231700Z AUTO 17007KT 9999 // NCD 26/15 Q1011

TAF (pilot weather forecast)

Closest forecast is Tennant Creek Airport, 260.6 nm (482.5 km) WSW. Retrieved 2019/04/23 14:03 UTC (4 hours ago):

TAF TAF YTNK 231242Z 2314/2402 14012KT CAVOK FM232200 13018KT CAVOK